This is the latest recevied weather packets stored in our database for station/object SP9WPN-12. If no packets are shown the sender has not sent any weather packets the latest 10 day(s).
| Time | Temp. | Humidity | Pressure | Rain* | Wind** | Luminosity | Snow |
|---|---|---|---|---|---|---|---|
| 1777536938 | 11.11° C | 35% | 1032.3 hPa | - | - | - | - |
| 1777536339 | 10.56° C | 36% | 1032.4 hPa | - | - | - | - |
| 1777535742 | 11.11° C | 36% | 1032.4 hPa | - | - | - | - |
| 1777535144 | 10° C | 36% | 1032.5 hPa | - | - | - | - |
| 1777534545 | 10° C | 36% | 1032.5 hPa | - | - | - | - |
| 1777533947 | 11.11° C | 36% | 1032.3 hPa | - | - | - | - |
| 1777533349 | 10° C | 37% | 1032.5 hPa | - | - | - | - |
| 1777532751 | 10° C | 39% | 1032.6 hPa | - | - | - | - |
| 1777532154 | 9.44° C | 42% | 1032.8 hPa | - | - | - | - |
| 1777531557 | 9.44° C | 42% | 1032.8 hPa | - | - | - | - |
| 1777530959 | 8.89° C | 44% | 1033 hPa | - | - | - | - |
| 1777530361 | 8.33° C | 44% | 1033 hPa | - | - | - | - |
| 1777529762 | 7.78° C | 46% | 1033.2 hPa | - | - | - | - |
| 1777529164 | 6.67° C | 53% | 1033.2 hPa | - | - | - | - |
| 1777528565 | 6.67° C | 55% | 1033.2 hPa | - | - | - | - |
| 1777527967 | 6.11° C | 58% | 1033.2 hPa | - | - | - | - |
| 1777527369 | 6.11° C | 61% | 1033.3 hPa | - | - | - | - |
| 1777526770 | 5° C | 66% | 1033.5 hPa | - | - | - | - |
| 1777526172 | 3.89° C | 73% | 1033.6 hPa | - | - | - | - |
| 1777525574 | 2.78° C | 81% | 1033.8 hPa | - | - | - | - |
| 1777524976 | 2.78° C | 80% | 1033.7 hPa | - | - | - | - |
| 1777524378 | 0° C | 86% | 1034 hPa | - | - | - | - |
| 1777523781 | -1.67° C | 94% | 1034.2 hPa | - | - | - | - |
| 1777523184 | -2.78° C | 94% | 1034.2 hPa | - | - | - | - |
| 1777522586 | -3.33° C | 95% | 1034.2 hPa | - | - | - | - |
* Rain since midnight (hover to see other rain measurements)
** Current wind speed in m/s (hover to see current wind gust speed)